createdAt,value
2022-12-13T00:00:23.437Z,199.97
2022-12-13T00:00:55.576Z,201.97
2022-12-13T00:01:27.873Z,205.37
2022-12-13T00:02:00.129Z,191.39
2022-12-13T00:02:32.262Z,188.38
2022-12-13T00:03:04.411Z,187.03
2022-12-13T00:03:36.639Z,187.00
2022-12-13T00:04:08.796Z,194.07
2022-12-13T00:04:40.957Z,255.00
2022-12-13T00:05:13.501Z,255.00
2022-12-13T00:05:45.328Z,246.01
2022-12-13T00:06:17.597Z,210.00
2022-12-13T00:06:49.916Z,209.88
2022-12-13T00:07:22.139Z,210.00
2022-12-13T00:07:54.379Z,26.21
2022-12-13T00:08:26.621Z,218.38
2022-12-13T00:08:58.778Z,209.88
2022-12-13T00:09:30.938Z,210.00
2022-12-13T00:10:03.252Z,180.64
2022-12-13T00:10:35.496Z,189.98
2022-12-13T00:11:07.619Z,171.74
2022-12-13T00:11:40.409Z,210.74
2022-12-13T00:12:12.564Z,210.00
2022-12-13T00:12:44.695Z,210.00
2022-12-13T00:13:16.854Z,210.00
2022-12-13T00:13:48.996Z,210.00
2022-12-13T00:14:21.231Z,209.28
2022-12-13T00:14:53.409Z,210.00
2022-12-13T00:15:25.614Z,209.39
2022-12-13T00:15:57.909Z,210.00
2022-12-13T00:16:30.142Z,210.00
2022-12-13T00:17:02.352Z,209.88
2022-12-13T00:17:34.488Z,209.28
2022-12-13T00:18:06.684Z,210.00
2022-12-13T00:18:39.031Z,210.00
2022-12-13T00:19:11.166Z,209.88
2022-12-13T00:19:43.308Z,210.00
2022-12-13T00:20:15.539Z,209.28
2022-12-13T00:20:47.821Z,210.00
2022-12-13T00:21:20.011Z,210.00
2022-12-13T00:21:52.443Z,209.28
2022-12-13T00:22:24.911Z,210.00
2022-12-13T00:22:57.139Z,209.16
2022-12-13T00:23:29.372Z,210.00
2022-12-13T00:24:01.619Z,210.00
2022-12-13T00:24:33.785Z,209.39
2022-12-13T00:25:05.992Z,209.88
2022-12-13T00:25:38.184Z,210.00
2022-12-13T00:26:10.956Z,210.00
2022-12-13T00:26:43.154Z,210.00
2022-12-13T00:27:15.342Z,209.39
2022-12-13T00:27:47.512Z,208.04
2022-12-13T00:28:19.690Z,209.16
2022-12-13T00:28:51.944Z,210.00
2022-12-13T00:29:24.161Z,209.39
2022-12-13T00:29:56.354Z,208.77
2022-12-13T00:30:28.673Z,209.77
2022-12-13T00:31:19.723Z,210.00
2022-12-13T00:32:05.533Z,210.00
2022-12-13T00:32:37.564Z,210.00
2022-12-13T00:33:09.741Z,207.42
2022-12-13T00:33:41.914Z,31.32
2022-12-13T00:34:14.117Z,30.00
2022-12-13T00:34:47.127Z,30.00
2022-12-13T00:35:19.310Z,30.00
2022-12-13T00:35:51.433Z,30.00
2022-12-13T00:36:23.634Z,30.00
2022-12-13T00:36:55.828Z,30.00
2022-12-13T00:37:27.979Z,30.00
2022-12-13T00:38:00.113Z,30.00
2022-12-13T00:38:32.333Z,30.00
2022-12-13T00:39:04.562Z,30.00
2022-12-13T00:39:36.759Z,30.00
2022-12-13T00:40:08.976Z,30.00
2022-12-13T00:40:41.190Z,30.00
2022-12-13T00:41:13.336Z,30.00
2022-12-13T00:41:45.478Z,29.36
2022-12-13T00:42:17.762Z,241.98
2022-12-13T00:42:49.956Z,287.80
2022-12-13T00:43:22.172Z,30.00
2022-12-13T00:43:54.435Z,66.74
2022-12-13T00:44:26.654Z,75.00
2022-12-13T00:44:58.786Z,75.00
2022-12-13T00:45:30.949Z,75.00
2022-12-13T00:46:03.145Z,75.00
2022-12-13T00:46:35.274Z,73.61
2022-12-13T00:47:07.410Z,75.00
2022-12-13T00:47:39.623Z,75.00
2022-12-13T00:48:11.993Z,75.00
2022-12-13T00:48:44.192Z,75.00
2022-12-13T00:49:16.495Z,75.00
2022-12-13T00:49:48.746Z,75.00
2022-12-13T00:50:20.958Z,75.00
2022-12-13T00:50:53.166Z,75.00
2022-12-13T00:51:25.364Z,75.00
2022-12-13T00:51:57.545Z,75.00
2022-12-13T00:52:29.699Z,75.00
2022-12-13T00:53:01.860Z,75.00
2022-12-13T00:53:34.132Z,204.87
2022-12-13T00:54:06.367Z,210.00
2022-12-13T00:54:38.571Z,210.00
2022-12-13T00:55:10.741Z,210.00
2022-12-13T00:55:42.927Z,210.00
2022-12-13T00:56:15.058Z,207.31
2022-12-13T00:56:47.207Z,24.70
2022-12-13T00:57:19.382Z,210.00
2022-12-13T00:57:51.591Z,223.43
2022-12-13T00:58:23.790Z,212.18
2022-12-13T00:58:55.970Z,210.00
2022-12-13T00:59:28.181Z,210.00
2022-12-13T01:00:00.363Z,210.00
2022-12-13T01:00:32.547Z,209.39
2022-12-13T01:01:04.761Z,101.91
2022-12-13T01:01:36.973Z,82.75
2022-12-13T01:02:08.988Z,210.00
2022-12-13T01:02:41.265Z,206.58
2022-12-13T01:03:13.496Z,210.00
2022-12-13T01:03:45.661Z,204.37
2022-12-13T01:04:17.834Z,210.00
2022-12-13T01:04:49.962Z,209.28
2022-12-13T01:05:46.090Z,198.09
2022-12-13T01:06:26.470Z,176.18
2022-12-13T01:06:58.762Z,173.26
2022-12-13T01:07:30.887Z,172.08
2022-12-13T01:08:03.079Z,75.00
2022-12-13T01:08:35.150Z,89.56
2022-12-13T01:09:07.277Z,20.03
2022-12-13T01:09:39.428Z,250.25
2022-12-13T01:10:11.640Z,233.27
2022-12-13T01:10:43.827Z,255.00
2022-12-13T01:11:16.005Z,255.00
2022-12-13T01:11:48.198Z,255.00
2022-12-13T01:12:20.630Z,255.00
2022-12-13T01:12:52.756Z,180.64
2022-12-13T01:13:24.934Z,170.38
2022-12-13T01:13:57.074Z,174.70
2022-12-13T01:14:29.297Z,229.33
2022-12-13T01:15:01.492Z,255.00
2022-12-13T01:15:33.701Z,255.00
2022-12-13T01:16:05.908Z,255.00
2022-12-13T01:16:38.160Z,255.00
2022-12-13T01:17:10.282Z,255.00
2022-12-13T01:17:42.424Z,255.00
2022-12-13T01:18:14.535Z,255.00
2022-12-13T01:18:46.689Z,255.00
2022-12-13T01:19:18.819Z,255.00
2022-12-13T01:19:51.006Z,255.00
2022-12-13T01:20:23.136Z,255.00
2022-12-13T01:20:55.269Z,259.93
2022-12-13T01:21:27.457Z,75.00
2022-12-13T01:21:59.938Z,75.00
2022-12-13T01:22:31.899Z,75.00
2022-12-13T01:23:04.107Z,75.00
2022-12-13T01:23:36.248Z,225.42
2022-12-13T01:24:08.391Z,210.00
2022-12-13T01:24:40.547Z,210.00
2022-12-13T01:25:13.058Z,210.00
2022-12-13T01:25:44.916Z,155.26
2022-12-13T01:26:17.118Z,60.86
2022-12-13T01:26:49.290Z,75.00
2022-12-13T01:27:21.427Z,75.00
2022-12-13T01:27:53.580Z,54.82
2022-12-13T01:28:25.736Z,30.00
2022-12-13T01:28:58.449Z,39.93
2022-12-13T01:29:30.722Z,210.00
2022-12-13T01:30:02.882Z,210.00
2022-12-13T01:30:35.132Z,208.62
2022-12-13T01:31:07.297Z,30.00
2022-12-13T01:31:39.436Z,30.00
2022-12-13T01:32:11.570Z,44.88
2022-12-13T01:32:43.772Z,55.79
2022-12-13T01:33:15.897Z,75.00
2022-12-13T01:33:48.072Z,30.00
2022-12-13T01:34:20.235Z,30.00
2022-12-13T01:34:52.492Z,64.58
2022-12-13T01:35:24.745Z,30.00
2022-12-13T01:35:56.875Z,30.00
2022-12-13T01:36:29.060Z,30.00
2022-12-13T01:37:01.228Z,66.67
2022-12-13T01:37:37.440Z,75.00
2022-12-13T01:38:15.409Z,75.00
2022-12-13T01:38:38.383Z,75.00
2022-12-13T01:39:14.915Z,75.00
2022-12-13T01:39:42.119Z,37.37
2022-12-13T01:40:16.191Z,60.81
2022-12-13T01:40:46.486Z,75.00
2022-12-13T01:41:18.694Z,75.00
2022-12-13T01:41:50.948Z,75.00
2022-12-13T01:42:23.128Z,75.00
2022-12-13T01:42:55.341Z,75.00
2022-12-13T01:43:27.538Z,75.00
2022-12-13T01:43:59.688Z,75.00
2022-12-13T01:44:31.812Z,75.00
2022-12-13T01:45:04.025Z,57.84
2022-12-13T01:45:36.163Z,72.34
2022-12-13T01:46:08.315Z,75.00
2022-12-13T01:46:40.481Z,75.00
2022-12-13T01:47:12.708Z,55.57
2022-12-13T01:47:44.842Z,51.77
2022-12-13T01:48:16.950Z,50.99
2022-12-13T01:48:49.092Z,30.00
2022-12-13T01:49:21.203Z,30.00
2022-12-13T01:49:53.386Z,47.95
2022-12-13T01:50:25.640Z,73.86
2022-12-13T01:50:57.876Z,38.26
2022-12-13T01:51:30.000Z,72.98
2022-12-13T01:52:02.189Z,51.73
2022-12-13T01:52:34.426Z,30.00
2022-12-13T01:53:06.609Z,30.00
2022-12-13T01:53:38.864Z,30.00
2022-12-13T01:54:10.995Z,30.00
2022-12-13T01:54:46.479Z,30.00
2022-12-13T01:55:15.440Z,30.00
2022-12-13T01:55:47.450Z,30.00
2022-12-13T01:56:19.575Z,225.25
2022-12-13T01:56:51.764Z,209.16
2022-12-13T01:57:23.968Z,233.60
2022-12-13T01:57:56.172Z,210.00
2022-12-13T01:58:28.285Z,184.63
2022-12-13T01:59:00.433Z,30.00
2022-12-13T01:59:32.595Z,30.00
2022-12-13T02:00:04.786Z,30.00
2022-12-13T02:00:37.049Z,30.00
2022-12-13T02:01:09.247Z,30.00
2022-12-13T02:01:41.513Z,30.00
2022-12-13T02:02:13.829Z,60.86
2022-12-13T02:02:46.019Z,48.89
2022-12-13T02:03:21.779Z,64.52
2022-12-13T02:03:50.475Z,75.00
2022-12-13T02:04:22.834Z,78.95
2022-12-13T02:04:55.030Z,216.03
2022-12-13T02:05:27.161Z,255.00
2022-12-13T02:06:00.436Z,263.57
2022-12-13T02:06:31.483Z,230.91
2022-12-13T02:07:03.679Z,68.30
2022-12-13T02:07:35.950Z,68.45
2022-12-13T02:08:08.173Z,40.83
2022-12-13T02:08:40.346Z,209.50
2022-12-13T02:09:12.529Z,63.63
2022-12-13T02:09:44.770Z,75.00
2022-12-13T02:10:16.957Z,75.00
2022-12-13T02:10:49.083Z,58.60
2022-12-13T02:11:21.188Z,62.35
2022-12-13T02:11:53.393Z,75.00
2022-12-13T02:12:25.562Z,75.00
2022-12-13T02:12:57.714Z,70.79
2022-12-13T02:13:29.836Z,75.00
2022-12-13T02:14:02.028Z,57.85
2022-12-13T02:14:34.219Z,42.81
2022-12-13T02:15:06.424Z,44.93
2022-12-13T02:15:38.622Z,36.83
2022-12-13T02:16:10.740Z,30.00
2022-12-13T02:16:42.946Z,30.00
2022-12-13T02:17:15.139Z,30.00
2022-12-13T02:17:47.279Z,30.00
2022-12-13T02:18:19.406Z,30.00
2022-12-13T02:18:51.584Z,30.00
2022-12-13T02:19:23.780Z,30.00
2022-12-13T02:19:55.980Z,30.00
2022-12-13T02:20:28.328Z,30.00
2022-12-13T02:21:00.501Z,30.00
2022-12-13T02:21:32.733Z,30.00
2022-12-13T02:22:04.892Z,30.00
2022-12-13T02:22:37.078Z,30.00
2022-12-13T02:23:09.303Z,30.00
2022-12-13T02:23:41.524Z,344.87
2022-12-13T02:24:13.727Z,243.08
2022-12-13T02:24:45.898Z,209.54
2022-12-13T02:25:18.029Z,172.53
2022-12-13T02:25:50.147Z,165.00
2022-12-13T02:26:22.297Z,165.00
2022-12-13T02:26:54.499Z,203.08
2022-12-13T02:27:30.643Z,276.87
2022-12-13T02:28:00.821Z,261.14
2022-12-13T02:28:32.336Z,216.28
2022-12-13T02:29:03.187Z,209.39
2022-12-13T02:29:35.340Z,210.00
2022-12-13T02:30:07.486Z,210.00
2022-12-13T02:30:39.664Z,209.39
2022-12-13T02:31:11.903Z,209.28
2022-12-13T02:31:44.072Z,209.39
2022-12-13T02:32:16.198Z,209.88
2022-12-13T02:32:48.344Z,209.88
2022-12-13T02:33:21.481Z,208.77
2022-12-13T02:33:52.640Z,210.00
2022-12-13T02:34:24.797Z,210.00
2022-12-13T02:34:56.967Z,209.88
2022-12-13T02:35:29.142Z,210.00
2022-12-13T02:36:01.292Z,210.00
2022-12-13T02:36:36.373Z,210.00
2022-12-13T02:37:05.652Z,210.00
2022-12-13T02:37:37.862Z,209.88
2022-12-13T02:38:10.097Z,209.88
2022-12-13T02:38:42.277Z,186.73
2022-12-13T02:39:14.522Z,165.00
2022-12-13T02:39:46.711Z,156.57
2022-12-13T02:40:18.807Z,75.00
2022-12-13T02:40:50.990Z,75.00
2022-12-13T02:41:23.172Z,63.83
2022-12-13T02:41:55.390Z,30.00
2022-12-13T02:42:27.603Z,211.99
2022-12-13T02:42:59.741Z,228.54
2022-12-13T02:43:33.757Z,288.18
2022-12-13T02:44:04.047Z,165.00
2022-12-13T02:44:36.176Z,165.00
2022-12-13T02:45:08.319Z,217.86
2022-12-13T02:45:40.520Z,176.17
2022-12-13T02:46:12.726Z,171.77
2022-12-13T02:46:44.821Z,177.65
2022-12-13T02:47:22.191Z,176.17
2022-12-13T02:47:49.120Z,174.70
2022-12-13T02:48:21.290Z,188.24
2022-12-13T02:48:53.515Z,210.00
2022-12-13T02:49:25.687Z,210.00
2022-12-13T02:49:57.848Z,210.00
2022-12-13T02:50:29.988Z,209.88
2022-12-13T02:51:02.206Z,210.00
2022-12-13T02:51:34.475Z,166.32
2022-12-13T02:52:06.645Z,171.85
2022-12-13T02:52:38.907Z,209.39
2022-12-13T02:53:11.115Z,210.00
2022-12-13T02:53:43.316Z,210.00
2022-12-13T02:54:15.528Z,209.39
2022-12-13T02:54:47.733Z,210.00
2022-12-13T02:55:21.154Z,210.00
2022-12-13T02:55:52.205Z,218.26
2022-12-13T02:56:24.372Z,210.00
2022-12-13T02:56:56.502Z,217.61
2022-12-13T02:57:28.634Z,210.00
2022-12-13T02:58:00.840Z,210.00
2022-12-13T02:58:33.166Z,214.03
2022-12-13T02:59:05.389Z,210.00
2022-12-13T02:59:37.607Z,209.88
2022-12-13T03:00:09.799Z,219.03
2022-12-13T03:00:42.070Z,255.00
2022-12-13T03:01:28.403Z,255.00
2022-12-13T03:01:46.688Z,230.65
2022-12-13T03:02:21.633Z,208.77
2022-12-13T03:02:51.049Z,210.00
2022-12-13T03:03:23.162Z,210.00
2022-12-13T03:03:55.242Z,210.00
2022-12-13T03:04:27.396Z,210.00
2022-12-13T03:04:59.534Z,229.51
2022-12-13T03:05:31.677Z,173.99
2022-12-13T03:06:03.876Z,171.83
2022-12-13T03:06:36.060Z,252.98
2022-12-13T03:07:08.260Z,256.32
2022-12-13T03:07:40.460Z,30.00
2022-12-13T03:08:12.705Z,30.00
2022-12-13T03:08:44.855Z,30.00
2022-12-13T03:09:17.037Z,30.00
2022-12-13T03:09:49.208Z,30.00
2022-12-13T03:10:21.331Z,60.11
2022-12-13T03:10:53.622Z,75.00
2022-12-13T03:11:25.758Z,156.57
2022-12-13T03:11:57.952Z,177.65
2022-12-13T03:12:30.146Z,210.00
2022-12-13T03:13:02.379Z,209.39
2022-12-13T03:13:34.553Z,210.00
2022-12-13T03:14:06.935Z,210.00
2022-12-13T03:14:39.403Z,210.00
2022-12-13T03:15:11.853Z,209.39
2022-12-13T03:15:43.913Z,209.88
2022-12-13T03:16:16.055Z,209.28
2022-12-13T03:16:48.211Z,210.00
2022-12-13T03:17:20.465Z,210.00
2022-12-13T03:17:52.640Z,209.39
2022-12-13T03:18:24.873Z,210.00
2022-12-13T03:18:57.068Z,209.28
2022-12-13T03:19:29.254Z,210.00
2022-12-13T03:20:01.412Z,210.00
2022-12-13T03:20:33.557Z,210.00
2022-12-13T03:21:05.779Z,243.61
2022-12-13T03:21:41.199Z,255.00
2022-12-13T03:22:10.108Z,255.00
2022-12-13T03:22:42.285Z,255.00
2022-12-13T03:23:14.526Z,255.00
2022-12-13T03:23:46.695Z,255.00
2022-12-13T03:24:18.969Z,257.05
2022-12-13T03:24:51.128Z,300.00
2022-12-13T03:25:30.995Z,300.00
2022-12-13T03:25:55.474Z,300.00
2022-12-13T03:26:27.726Z,300.00
2022-12-13T03:26:59.847Z,36.82
2022-12-13T03:27:31.973Z,70.97
2022-12-13T03:28:04.179Z,83.43
2022-12-13T03:28:36.460Z,101.94
2022-12-13T03:29:08.633Z,54.80
2022-12-13T03:29:40.811Z,127.18
2022-12-13T03:30:12.980Z,141.53
2022-12-13T03:30:45.187Z,165.00
2022-12-13T03:31:17.436Z,70.40
2022-12-13T03:31:49.569Z,75.00
2022-12-13T03:32:21.743Z,75.00
2022-12-13T03:32:53.909Z,75.00
2022-12-13T03:33:26.039Z,139.54
2022-12-13T03:33:58.294Z,148.74
2022-12-13T03:34:44.233Z,75.00
2022-12-13T03:35:02.624Z,75.00
2022-12-13T03:35:45.274Z,75.00
2022-12-13T03:36:07.014Z,75.00
2022-12-13T03:36:39.140Z,75.00
2022-12-13T03:37:11.315Z,75.00
2022-12-13T03:37:43.509Z,75.00
2022-12-13T03:38:21.353Z,75.00
2022-12-13T03:38:47.890Z,75.00
2022-12-13T03:39:20.111Z,75.00
2022-12-13T03:39:52.254Z,75.00
2022-12-13T03:40:24.406Z,75.00
2022-12-13T03:40:56.531Z,75.00
2022-12-13T03:41:28.652Z,75.00
2022-12-13T03:42:00.843Z,69.85
2022-12-13T03:42:33.182Z,300.00
2022-12-13T03:43:05.318Z,300.00
2022-12-13T03:43:37.459Z,279.80
2022-12-13T03:44:09.638Z,255.00
2022-12-13T03:44:41.799Z,255.00
2022-12-13T03:45:14.250Z,255.00
2022-12-13T03:45:46.161Z,255.00
2022-12-13T03:46:18.398Z,255.00
2022-12-13T03:46:50.579Z,255.00
2022-12-13T03:47:22.733Z,255.00
2022-12-13T03:47:54.943Z,255.00
2022-12-13T03:48:27.117Z,255.00
2022-12-13T03:48:59.273Z,308.62
2022-12-13T03:49:35.796Z,30.00
2022-12-13T03:50:07.680Z,30.00
2022-12-13T03:50:35.794Z,30.00
2022-12-13T03:51:08.096Z,30.00
2022-12-13T03:51:40.332Z,30.00
2022-12-13T03:52:12.512Z,30.00
2022-12-13T03:52:44.813Z,31.32
2022-12-13T03:53:23.172Z,176.17
2022-12-13T03:53:49.190Z,207.23
2022-12-13T03:54:21.368Z,224.91
2022-12-13T03:54:53.567Z,189.59
2022-12-13T03:55:25.780Z,255.00
2022-12-13T03:55:57.934Z,58.28
2022-12-13T03:56:30.064Z,40.48
2022-12-13T03:57:02.195Z,83.43
2022-12-13T03:57:34.355Z,174.70
2022-12-13T03:58:07.996Z,189.45
2022-12-13T03:58:38.664Z,192.39
2022-12-13T03:59:10.916Z,181.39
2022-12-13T03:59:43.194Z,210.00
2022-12-13T04:00:15.327Z,255.00
2022-12-13T04:00:47.446Z,255.00
2022-12-13T04:01:19.702Z,255.00
2022-12-13T04:01:51.921Z,240.62
2022-12-13T04:02:31.063Z,75.00
2022-12-13T04:02:56.229Z,75.00
2022-12-13T04:03:28.456Z,75.00
2022-12-13T04:04:00.525Z,75.00
2022-12-13T04:04:32.682Z,111.53
2022-12-13T04:05:04.915Z,212.66
2022-12-13T04:05:37.101Z,102.00
2022-12-13T04:06:09.329Z,206.10
2022-12-13T04:06:41.560Z,169.03
2022-12-13T04:07:22.411Z,210.00
2022-12-13T04:07:48.272Z,208.68
2022-12-13T04:08:22.218Z,350.90
2022-12-13T04:08:51.050Z,215.39
2022-12-13T04:09:22.475Z,218.26
2022-12-13T04:09:54.694Z,230.20
2022-12-13T04:10:26.975Z,229.52
2022-12-13T04:10:59.124Z,222.26
2022-12-13T04:11:31.306Z,22.49
2022-12-13T04:12:03.479Z,170.42
2022-12-13T04:12:35.659Z,178.96
2022-12-13T04:13:07.843Z,30.78
2022-12-13T04:13:40.087Z,212.81
2022-12-13T04:14:12.323Z,208.77
2022-12-13T04:14:44.458Z,244.90
2022-12-13T04:15:16.815Z,44.74
2022-12-13T04:15:48.790Z,290.05
2022-12-13T04:16:20.957Z,216.83
2022-12-13T04:16:53.068Z,212.81
2022-12-13T04:17:25.218Z,234.80
2022-12-13T04:17:57.430Z,255.00
2022-12-13T04:18:29.595Z,251.56
2022-12-13T04:19:01.770Z,255.00
2022-12-13T04:19:33.948Z,255.00
2022-12-13T04:20:06.141Z,255.00
2022-12-13T04:20:38.317Z,255.00
2022-12-13T04:21:10.471Z,255.00
2022-12-13T04:21:42.603Z,255.00
2022-12-13T04:22:16.995Z,255.00
2022-12-13T04:22:47.084Z,255.00
2022-12-13T04:23:19.226Z,255.00
2022-12-13T04:23:51.380Z,255.00
2022-12-13T04:24:31.260Z,255.00
2022-12-13T04:24:55.708Z,255.00
2022-12-13T04:25:27.897Z,255.00
2022-12-13T04:26:00.042Z,255.00
2022-12-13T04:26:32.169Z,255.00
2022-12-13T04:27:04.307Z,255.00
2022-12-13T04:27:36.437Z,255.00
2022-12-13T04:28:08.633Z,255.00
2022-12-13T04:28:40.784Z,295.51
2022-12-13T04:29:13.005Z,346.75
2022-12-13T04:29:45.295Z,345.00
2022-12-13T04:30:17.491Z,345.00
2022-12-13T04:30:53.430Z,345.00
2022-12-13T04:31:21.994Z,39.81
2022-12-13T04:31:54.094Z,75.00
2022-12-13T04:32:27.444Z,75.00
2022-12-13T04:32:58.500Z,75.00
2022-12-13T04:33:30.661Z,75.00
2022-12-13T04:34:02.865Z,75.00
2022-12-13T04:34:37.596Z,72.34
2022-12-13T04:35:07.211Z,30.00
2022-12-13T04:35:39.424Z,30.00
2022-12-13T04:36:11.625Z,54.80
2022-12-13T04:36:43.800Z,75.00
2022-12-13T04:37:15.925Z,75.00
2022-12-13T04:37:48.097Z,75.00
2022-12-13T04:38:20.284Z,75.00
2022-12-13T04:38:52.479Z,75.00
2022-12-13T04:39:24.611Z,75.00
2022-12-13T04:40:00.688Z,75.00
2022-12-13T04:40:28.868Z,75.00
2022-12-13T04:41:01.020Z,75.00
2022-12-13T04:41:34.494Z,75.00
2022-12-13T04:42:05.415Z,75.00
2022-12-13T04:42:37.600Z,75.00
2022-12-13T04:43:09.740Z,72.91
2022-12-13T04:43:41.902Z,75.00
2022-12-13T04:44:29.032Z,69.53
2022-12-13T04:44:46.421Z,72.34
2022-12-13T04:45:18.413Z,75.00
2022-12-13T04:45:50.588Z,72.98
2022-12-13T04:46:22.803Z,75.00
2022-12-13T04:46:55.024Z,75.00
2022-12-13T04:47:27.225Z,64.55
2022-12-13T04:47:59.388Z,32.92
2022-12-13T04:48:31.812Z,30.00
2022-12-13T04:49:03.663Z,75.00
2022-12-13T04:49:35.822Z,67.44
2022-12-13T04:50:07.948Z,57.85
2022-12-13T04:50:40.087Z,37.59
2022-12-13T04:51:12.292Z,75.00
2022-12-13T04:51:44.464Z,75.00
2022-12-13T04:52:22.348Z,75.00
2022-12-13T04:52:48.796Z,72.98
2022-12-13T04:53:20.979Z,30.00
2022-12-13T04:53:53.166Z,155.23
2022-12-13T04:54:25.352Z,83.43
2022-12-13T04:54:57.551Z,75.00
2022-12-13T04:55:29.742Z,75.00
2022-12-13T04:56:01.925Z,72.98
2022-12-13T04:56:34.113Z,75.00
2022-12-13T04:57:06.378Z,75.00
2022-12-13T04:57:38.595Z,75.00
2022-12-13T04:58:10.725Z,75.00
2022-12-13T04:58:42.863Z,75.00
2022-12-13T04:59:15.082Z,102.76
2022-12-13T04:59:47.264Z,255.00
2022-12-13T05:00:19.390Z,210.00
2022-12-13T05:00:51.555Z,160.09
2022-12-13T05:01:23.749Z,221.63
2022-12-13T05:01:55.911Z,249.29
2022-12-13T05:02:27.963Z,214.03
2022-12-13T05:03:00.091Z,210.00
2022-12-13T05:03:32.230Z,183.66
2022-12-13T05:04:04.425Z,83.29
2022-12-13T05:04:36.623Z,75.00
2022-12-13T05:05:08.796Z,194.25
2022-12-13T05:05:40.960Z,210.00
2022-12-13T05:06:26.954Z,209.88
2022-12-13T05:06:45.343Z,210.00
2022-12-13T05:07:17.473Z,50.92
2022-12-13T05:07:49.675Z,147.37
2022-12-13T05:08:21.868Z,209.39
2022-12-13T05:08:54.019Z,210.00
2022-12-13T05:09:26.244Z,209.39
2022-12-13T05:09:58.449Z,210.00
2022-12-13T05:10:33.992Z,24.26
2022-12-13T05:11:02.777Z,30.00
2022-12-13T05:11:35.628Z,30.00
2022-12-13T05:12:22.865Z,30.00
2022-12-13T05:12:39.473Z,60.86
2022-12-13T05:13:11.659Z,65.30
2022-12-13T05:13:43.853Z,30.00
2022-12-13T05:14:23.456Z,32.05
2022-12-13T05:14:48.257Z,49.47
2022-12-13T05:15:20.447Z,76.07
2022-12-13T05:15:55.234Z,65.16
2022-12-13T05:16:24.993Z,213.25
2022-12-13T05:16:57.027Z,342.73
2022-12-13T05:17:29.150Z,68.31
2022-12-13T05:18:01.288Z,290.10
2022-12-13T05:18:33.492Z,248.75
2022-12-13T05:19:05.613Z,151.50
2022-12-13T05:19:44.796Z,96.11
2022-12-13T05:20:17.165Z,210.00
2022-12-13T05:20:49.322Z,184.85
2022-12-13T05:21:21.491Z,190.46
2022-12-13T05:21:53.626Z,51.77
2022-12-13T05:22:25.869Z,183.67
2022-12-13T05:22:58.127Z,177.65
2022-12-13T05:23:30.341Z,177.66
2022-12-13T05:24:02.459Z,171.74
2022-12-13T05:24:34.579Z,184.44
2022-12-13T05:25:06.734Z,86.83
2022-12-13T05:25:38.870Z,135.53
2022-12-13T05:26:11.002Z,210.00
2022-12-13T05:26:43.155Z,154.53
2022-12-13T05:27:25.385Z,75.00
2022-12-13T05:27:47.587Z,75.00
2022-12-13T05:28:27.025Z,75.00
2022-12-13T05:28:51.939Z,75.00
2022-12-13T05:29:24.083Z,93.75
2022-12-13T05:30:02.943Z,189.91
2022-12-13T05:30:28.390Z,71.63
2022-12-13T05:31:00.621Z,26.62
2022-12-13T05:31:32.847Z,246.60
2022-12-13T05:32:05.040Z,220.23
2022-12-13T05:32:43.692Z,30.00
2022-12-13T05:33:09.345Z,30.00
2022-12-13T05:33:41.574Z,30.00
2022-12-13T05:34:13.755Z,30.00
2022-12-13T05:34:45.928Z,44.93
2022-12-13T05:35:22.900Z,183.61
2022-12-13T05:35:51.511Z,147.32
2022-12-13T05:36:22.590Z,80.84
2022-12-13T05:36:54.826Z,71.63
2022-12-13T05:37:27.046Z,75.00
2022-12-13T05:37:59.248Z,72.98
2022-12-13T05:38:31.422Z,63.83
2022-12-13T05:39:03.604Z,75.00
2022-12-13T05:39:35.798Z,75.00
2022-12-13T05:40:07.985Z,75.00
2022-12-13T05:40:40.196Z,75.00
2022-12-13T05:41:12.446Z,75.00
2022-12-13T05:41:44.697Z,75.00
2022-12-13T05:42:17.010Z,51.03
2022-12-13T05:42:49.200Z,65.60
2022-12-13T05:43:22.431Z,35.42
2022-12-13T05:43:53.722Z,30.00
2022-12-13T05:44:25.854Z,51.73
2022-12-13T05:44:58.043Z,56.32
2022-12-13T05:45:30.255Z,30.00
2022-12-13T05:46:02.572Z,66.74
2022-12-13T05:46:39.919Z,75.00
2022-12-13T05:47:06.904Z,229.31
2022-12-13T05:47:39.166Z,255.00
2022-12-13T05:48:11.330Z,255.00
2022-12-13T05:48:43.490Z,255.00
2022-12-13T05:49:15.679Z,82.03
2022-12-13T05:49:47.860Z,167.00
2022-12-13T05:50:20.009Z,24.58
2022-12-13T05:50:52.218Z,59.36
2022-12-13T05:51:24.361Z,65.30
2022-12-13T05:51:56.502Z,75.00
2022-12-13T05:52:30.795Z,75.00
2022-12-13T05:53:01.827Z,75.00
2022-12-13T05:53:34.013Z,75.00
2022-12-13T05:54:06.214Z,182.95
2022-12-13T05:54:38.379Z,280.90
2022-12-13T05:55:10.582Z,30.00
2022-12-13T05:55:42.764Z,30.00
2022-12-13T05:56:22.752Z,30.00
2022-12-13T05:56:47.128Z,30.00
2022-12-13T05:57:19.288Z,30.00
2022-12-13T05:57:51.681Z,30.00
2022-12-13T05:58:23.630Z,30.00
2022-12-13T05:58:55.799Z,30.00
2022-12-13T05:59:27.987Z,30.00
2022-12-13T06:00:00.177Z,30.00
2022-12-13T06:00:32.386Z,30.00
2022-12-13T06:01:04.554Z,30.00
2022-12-13T06:01:36.694Z,30.00
2022-12-13T06:02:08.930Z,30.00
2022-12-13T06:02:41.132Z,30.00
2022-12-13T06:03:13.616Z,30.00
2022-12-13T06:03:46.619Z,30.00
2022-12-13T06:04:22.739Z,30.00
2022-12-13T06:04:51.619Z,30.00
2022-12-13T06:05:23.830Z,30.00
2022-12-13T06:05:55.991Z,30.00
2022-12-13T06:06:28.125Z,30.00
2022-12-13T06:07:00.376Z,30.00
2022-12-13T06:07:32.550Z,30.00
2022-12-13T06:08:24.611Z,30.00
2022-12-13T06:08:36.990Z,30.00
2022-12-13T06:09:09.053Z,30.00
2022-12-13T06:09:41.240Z,143.36
2022-12-13T06:10:13.408Z,176.18
2022-12-13T06:10:45.658Z,76.19
2022-12-13T06:11:31.251Z,75.00
2022-12-13T06:11:50.160Z,75.00
2022-12-13T06:12:31.521Z,75.00
2022-12-13T06:12:54.609Z,161.05
2022-12-13T06:13:32.404Z,88.50
2022-12-13T06:14:01.120Z,75.00
2022-12-13T06:14:31.306Z,179.15
2022-12-13T06:15:03.520Z,174.68
2022-12-13T06:15:35.690Z,97.25
2022-12-13T06:16:07.942Z,75.00
2022-12-13T06:16:40.082Z,75.00
2022-12-13T06:17:12.272Z,75.00
2022-12-13T06:17:44.332Z,75.00
2022-12-13T06:18:16.498Z,75.00
2022-12-13T06:18:50.672Z,75.00
2022-12-13T06:19:20.934Z,75.00
2022-12-13T06:19:53.065Z,75.00
2022-12-13T06:20:25.217Z,75.00
2022-12-13T06:20:57.398Z,75.00
2022-12-13T06:21:39.148Z,75.00
2022-12-13T06:22:01.845Z,75.00
2022-12-13T06:22:34.044Z,75.00
2022-12-13T06:23:06.254Z,75.00
2022-12-13T06:23:38.464Z,75.00
2022-12-13T06:24:10.662Z,75.00
2022-12-13T06:24:42.889Z,75.00
2022-12-13T06:25:30.828Z,75.00
2022-12-13T06:25:51.516Z,75.00
2022-12-13T06:26:19.431Z,75.00
2022-12-13T06:26:51.636Z,75.00
2022-12-13T06:27:23.778Z,75.00
2022-12-13T06:27:55.896Z,75.00
2022-12-13T06:28:28.131Z,75.00
2022-12-13T06:29:00.343Z,75.00
2022-12-13T06:29:32.473Z,75.00
2022-12-13T06:30:04.648Z,75.00
2022-12-13T06:30:36.880Z,75.00
2022-12-13T06:31:09.042Z,75.00
2022-12-13T06:31:41.187Z,75.00
2022-12-13T06:32:13.867Z,75.00
2022-12-13T06:32:46.355Z,75.00
2022-12-13T06:33:23.563Z,75.00
2022-12-13T06:33:50.668Z,75.00
2022-12-13T06:34:22.868Z,75.00
2022-12-13T06:34:55.014Z,75.00
2022-12-13T06:35:29.852Z,75.00
2022-12-13T06:35:59.275Z,75.00
2022-12-13T06:36:31.502Z,75.00
2022-12-13T06:37:03.672Z,75.00
2022-12-13T06:37:35.866Z,75.00
2022-12-13T06:38:11.904Z,75.00
2022-12-13T06:38:43.231Z,75.00
2022-12-13T06:39:13.360Z,75.00
2022-12-13T06:39:45.548Z,75.00
2022-12-13T06:40:22.841Z,75.00
2022-12-13T06:40:49.825Z,75.00
2022-12-13T06:41:22.095Z,75.00
2022-12-13T06:41:54.277Z,75.00
2022-12-13T06:42:26.407Z,75.00
2022-12-13T06:42:58.555Z,75.00
2022-12-13T06:43:30.763Z,75.00
2022-12-13T06:44:02.941Z,75.00
2022-12-13T06:44:35.181Z,75.00
2022-12-13T06:45:07.362Z,75.00
2022-12-13T06:45:39.555Z,75.00
2022-12-13T06:46:11.834Z,75.00
2022-12-13T06:46:44.040Z,75.00
2022-12-13T06:47:31.276Z,75.00
2022-12-13T06:47:48.500Z,75.00
2022-12-13T06:48:20.729Z,75.00
2022-12-13T06:48:52.939Z,141.58
2022-12-13T06:49:25.118Z,210.00